sensor_id;sensor_type;location;lat;lon;timestamp;temperature;humidity
67186;HTU21D;54116;53.518;49.398;2022-09-09T00:04:28;6.14;118.99
67186;HTU21D;54116;53.518;49.398;2022-09-09T00:07:21;6.15;118.99
67186;HTU21D;54116;53.518;49.398;2022-09-09T00:10:08;5.95;118.99
67186;HTU21D;54116;53.518;49.398;2022-09-09T00:16:07;5.98;118.99
67186;HTU21D;54116;53.518;49.398;2022-09-09T00:21:13;6.33;118.99
67186;HTU21D;54116;53.518;49.398;2022-09-09T00:23:48;6.12;118.99
67186;HTU21D;54116;53.518;49.398;2022-09-09T00:26:25;6.19;118.99
67186;HTU21D;54116;53.518;49.398;2022-09-09T00:31:34;6.12;118.99
67186;HTU21D;54116;53.518;49.398;2022-09-09T00:34:17;6.60;118.99
67186;HTU21D;54116;53.518;49.398;2022-09-09T00:36:45;6.40;118.99
67186;HTU21D;54116;53.518;49.398;2022-09-09T00:39:27;6.85;118.99
67186;HTU21D;54116;53.518;49.398;2022-09-09T00:44:31;6.40;118.99
67186;HTU21D;54116;53.518;49.398;2022-09-09T00:47:24;6.38;118.99
67186;HTU21D;54116;53.518;49.398;2022-09-09T00:58:16;6.29;118.99
67186;HTU21D;54116;53.518;49.398;2022-09-09T01:00:52;6.55;118.99
67186;HTU21D;54116;53.518;49.398;2022-09-09T01:03:37;5.90;118.99
67186;HTU21D;54116;53.518;49.398;2022-09-09T01:06:32;6.17;118.99
67186;HTU21D;54116;53.518;49.398;2022-09-09T01:12:02;6.09;118.99
67186;HTU21D;54116;53.518;49.398;2022-09-09T01:17:10;5.77;118.99
67186;HTU21D;54116;53.518;49.398;2022-09-09T01:22:27;5.71;118.99
67186;HTU21D;54116;53.518;49.398;2022-09-09T01:27:40;5.97;118.99
67186;HTU21D;54116;53.518;49.398;2022-09-09T01:30:11;5.79;118.99
67186;HTU21D;54116;53.518;49.398;2022-09-09T01:32:46;6.40;118.99
67186;HTU21D;54116;53.518;49.398;2022-09-09T01:37:57;6.39;118.99
67186;HTU21D;54116;53.518;49.398;2022-09-09T01:40:24;6.37;118.99
67186;HTU21D;54116;53.518;49.398;2022-09-09T01:42:51;3.58;118.99
67186;HTU21D;54116;53.518;49.398;2022-09-09T01:45:18;6.14;118.99
67186;HTU21D;54116;53.518;49.398;2022-09-09T01:47:45;6.83;118.99
67186;HTU21D;54116;53.518;49.398;2022-09-09T01:50:14;6.75;118.99
67186;HTU21D;54116;53.518;49.398;2022-09-09T01:52:41;7.10;118.99
67186;HTU21D;54116;53.518;49.398;2022-09-09T01:55:08;6.70;118.99
67186;HTU21D;54116;53.518;49.398;2022-09-09T02:00:32;6.25;118.99
67186;HTU21D;54116;53.518;49.398;2022-09-09T02:03:25;6.17;118.99
67186;HTU21D;54116;53.518;49.398;2022-09-09T02:06:03;6.90;118.99
67186;HTU21D;54116;53.518;49.398;2022-09-09T02:08:42;4.82;118.99
67186;HTU21D;54116;53.518;49.398;2022-09-09T02:11:13;6.80;118.99
67186;HTU21D;54116;53.518;49.398;2022-09-09T02:13:47;7.43;118.99
67186;HTU21D;54116;53.518;49.398;2022-09-09T02:16:34;6.15;118.99
67186;HTU21D;54116;53.518;49.398;2022-09-09T02:19:14;4.86;118.99
67186;HTU21D;54116;53.518;49.398;2022-09-09T02:21:44;7.22;118.99
67186;HTU21D;54116;53.518;49.398;2022-09-09T02:24:13;6.51;118.99
67186;HTU21D;54116;53.518;49.398;2022-09-09T02:26:42;6.80;118.99
67186;HTU21D;54116;53.518;49.398;2022-09-09T02:29:15;-1.61;118.99
67186;HTU21D;54116;53.518;49.398;2022-09-09T02:31:44;7.83;118.99
67186;HTU21D;54116;53.518;49.398;2022-09-09T02:34:12;7.88;118.99
67186;HTU21D;54116;53.518;49.398;2022-09-09T02:36:41;7.83;118.99
67186;HTU21D;54116;53.518;49.398;2022-09-09T02:39:09;7.63;118.99
67186;HTU21D;54116;53.518;49.398;2022-09-09T02:41:40;7.94;118.99
67186;HTU21D;54116;53.518;49.398;2022-09-09T02:44:12;7.86;118.99
67186;HTU21D;54116;53.518;49.398;2022-09-09T02:47:16;7.26;118.99
67186;HTU21D;54116;53.518;49.398;2022-09-09T02:50:31;8.20;118.99
67186;HTU21D;54116;53.518;49.398;2022-09-09T02:53:08;8.18;118.99
67186;HTU21D;54116;53.518;49.398;2022-09-09T02:58:09;7.97;118.99
67186;HTU21D;54116;53.518;49.398;2022-09-09T03:00:38;7.69;118.99
67186;HTU21D;54116;53.518;49.398;2022-09-09T03:03:06;6.88;118.99
67186;HTU21D;54116;53.518;49.398;2022-09-09T03:05:34;7.55;118.99
67186;HTU21D;54116;53.518;49.398;2022-09-09T03:08:02;7.46;118.99
67186;HTU21D;54116;53.518;49.398;2022-09-09T03:10:28;7.73;118.99
67186;HTU21D;54116;53.518;49.398;2022-09-09T03:12:54;7.98;118.99
67186;HTU21D;54116;53.518;49.398;2022-09-09T03:15:21;7.89;118.99
67186;HTU21D;54116;53.518;49.398;2022-09-09T03:17:47;7.28;118.99
67186;HTU21D;54116;53.518;49.398;2022-09-09T03:20:13;8.28;118.99
67186;HTU21D;54116;53.518;49.398;2022-09-09T03:22:39;8.34;118.99
67186;HTU21D;54116;53.518;49.398;2022-09-09T03:25:06;8.31;118.99
67186;HTU21D;54116;53.518;49.398;2022-09-09T03:27:33;8.26;118.99
67186;HTU21D;54116;53.518;49.398;2022-09-09T03:29:59;8.28;118.99
67186;HTU21D;54116;53.518;49.398;2022-09-09T03:32:25;7.86;118.99
67186;HTU21D;54116;53.518;49.398;2022-09-09T03:34:52;8.24;118.99
67186;HTU21D;54116;53.518;49.398;2022-09-09T03:37:18;8.74;118.99
67186;HTU21D;54116;53.518;49.398;2022-09-09T03:39:45;8.92;118.99
67186;HTU21D;54116;53.518;49.398;2022-09-09T03:42:15;9.25;118.99
67186;HTU21D;54116;53.518;49.398;2022-09-09T03:44:45;9.15;118.99
67186;HTU21D;54116;53.518;49.398;2022-09-09T03:47:19;9.27;118.99
67186;HTU21D;54116;53.518;49.398;2022-09-09T03:49:47;10.01;118.99
67186;HTU21D;54116;53.518;49.398;2022-09-09T03:52:16;10.21;118.99
67186;HTU21D;54116;53.518;49.398;2022-09-09T03:54:44;10.33;118.99
67186;HTU21D;54116;53.518;49.398;2022-09-09T03:57:10;10.01;118.99
67186;HTU21D;54116;53.518;49.398;2022-09-09T03:59:36;10.31;118.99
67186;HTU21D;54116;53.518;49.398;2022-09-09T04:02:03;10.45;118.99
67186;HTU21D;54116;53.518;49.398;2022-09-09T04:04:29;10.41;118.99
67186;HTU21D;54116;53.518;49.398;2022-09-09T04:06:56;10.28;118.99
67186;HTU21D;54116;53.518;49.398;2022-09-09T04:09:22;10.31;118.99
67186;HTU21D;54116;53.518;49.398;2022-09-09T04:11:48;10.37;118.99
67186;HTU21D;54116;53.518;49.398;2022-09-09T04:14:15;10.42;118.99
67186;HTU21D;54116;53.518;49.398;2022-09-09T04:16:41;13.10;118.99
67186;HTU21D;54116;53.518;49.398;2022-09-09T04:19:11;12.95;118.99
67186;HTU21D;54116;53.518;49.398;2022-09-09T04:21:40;13.11;118.99
67186;HTU21D;54116;53.518;49.398;2022-09-09T04:24:07;12.36;118.99
67186;HTU21D;54116;53.518;49.398;2022-09-09T04:26:34;12.27;118.99
67186;HTU21D;54116;53.518;49.398;2022-09-09T04:29:03;12.08;118.99
67186;HTU21D;54116;53.518;49.398;2022-09-09T04:31:29;14.89;115.70
67186;HTU21D;54116;53.518;49.398;2022-09-09T04:33:55;16.78;101.96
67186;HTU21D;54116;53.518;49.398;2022-09-09T04:36:22;18.86;88.41
67186;HTU21D;54116;53.518;49.398;2022-09-09T04:38:48;19.30;87.77
67186;HTU21D;54116;53.518;49.398;2022-09-09T04:41:17;19.08;97.68
67186;HTU21D;54116;53.518;49.398;2022-09-09T04:43:43;18.26;118.99
67186;HTU21D;54116;53.518;49.398;2022-09-09T04:46:10;16.04;81.62
67186;HTU21D;54116;53.518;49.398;2022-09-09T04:48:36;16.58;118.99
67186;HTU21D;54116;53.518;49.398;2022-09-09T04:51:06;16.49;118.99
67186;HTU21D;54116;53.518;49.398;2022-09-09T04:53:32;15.76;83.34
67186;HTU21D;54116;53.518;49.398;2022-09-09T04:56:14;14.68;91.89
67186;HTU21D;54116;53.518;49.398;2022-09-09T04:58:41;13.86;100.66
67186;HTU21D;54116;53.518;49.398;2022-09-09T05:01:11;13.12;102.57
67186;HTU21D;54116;53.518;49.398;2022-09-09T05:03:37;12.44;108.53
67186;HTU21D;54116;53.518;49.398;2022-09-09T05:06:09;12.11;117.46
67186;HTU21D;54116;53.518;49.398;2022-09-09T05:08:37;12.45;115.74
67186;HTU21D;54116;53.518;49.398;2022-09-09T05:11:12;12.67;115.95
67186;HTU21D;54116;53.518;49.398;2022-09-09T05:13:38;12.21;117.07
67186;HTU21D;54116;53.518;49.398;2022-09-09T05:16:04;12.21;116.75
67186;HTU21D;54116;53.518;49.398;2022-09-09T05:18:30;12.27;115.71
67186;HTU21D;54116;53.518;49.398;2022-09-09T05:20:59;12.18;116.21
67186;HTU21D;54116;53.518;49.398;2022-09-09T05:23:26;12.26;117.56
67186;HTU21D;54116;53.518;49.398;2022-09-09T05:25:59;12.80;115.83
67186;HTU21D;54116;53.518;49.398;2022-09-09T05:28:27;12.67;118.99
67186;HTU21D;54116;53.518;49.398;2022-09-09T05:31:04;12.27;111.07
67186;HTU21D;54116;53.518;49.398;2022-09-09T05:33:31;12.71;111.97
67186;HTU21D;54116;53.518;49.398;2022-09-09T05:36:05;13.16;109.81
67186;HTU21D;54116;53.518;49.398;2022-09-09T05:38:34;13.04;105.24
67186;HTU21D;54116;53.518;49.398;2022-09-09T05:41:02;12.86;103.63
67186;HTU21D;54116;53.518;49.398;2022-09-09T05:43:29;12.53;106.44
67186;HTU21D;54116;53.518;49.398;2022-09-09T05:46:15;12.36;106.10
67186;HTU21D;54116;53.518;49.398;2022-09-09T05:48:43;11.88;111.10
67186;HTU21D;54116;53.518;49.398;2022-09-09T05:51:14;11.71;112.68
67186;HTU21D;54116;53.518;49.398;2022-09-09T05:53:44;11.55;111.95
67186;HTU21D;54116;53.518;49.398;2022-09-09T05:56:15;11.70;113.00
67186;HTU21D;54116;53.518;49.398;2022-09-09T05:58:41;12.08;109.59
67186;HTU21D;54116;53.518;49.398;2022-09-09T06:01:25;14.10;95.38
67186;HTU21D;54116;53.518;49.398;2022-09-09T06:03:52;17.38;73.12
67186;HTU21D;54116;53.518;49.398;2022-09-09T06:06:21;16.18;70.51
67186;HTU21D;54116;53.518;49.398;2022-09-09T06:08:50;14.12;78.43
67186;HTU21D;54116;53.518;49.398;2022-09-09T06:11:20;14.08;87.48
67186;HTU21D;54116;53.518;49.398;2022-09-09T06:13:47;14.00;82.05
67186;HTU21D;54116;53.518;49.398;2022-09-09T06:16:17;14.23;83.55
67186;HTU21D;54116;53.518;49.398;2022-09-09T06:18:44;13.55;85.00
67186;HTU21D;54116;53.518;49.398;2022-09-09T06:21:18;12.31;100.47
67186;HTU21D;54116;53.518;49.398;2022-09-09T06:23:44;11.64;118.99
67186;HTU21D;54116;53.518;49.398;2022-09-09T06:28:46;9.67;118.99
67186;HTU21D;54116;53.518;49.398;2022-09-09T06:31:14;9.07;118.99
67186;HTU21D;54116;53.518;49.398;2022-09-09T06:33:43;9.01;118.99
67186;HTU21D;54116;53.518;49.398;2022-09-09T06:36:12;9.03;118.99
67186;HTU21D;54116;53.518;49.398;2022-09-09T06:38:38;9.08;118.99
67186;HTU21D;54116;53.518;49.398;2022-09-09T06:41:05;9.03;118.99
67186;HTU21D;54116;53.518;49.398;2022-09-09T06:43:31;8.95;118.99
67186;HTU21D;54116;53.518;49.398;2022-09-09T06:46:05;9.06;118.99
67186;HTU21D;54116;53.518;49.398;2022-09-09T06:48:31;9.15;118.99
67186;HTU21D;54116;53.518;49.398;2022-09-09T06:53:28;9.39;118.99
67186;HTU21D;54116;53.518;49.398;2022-09-09T06:55:54;9.39;118.99
67186;HTU21D;54116;53.518;49.398;2022-09-09T06:58:21;9.35;118.99
67186;HTU21D;54116;53.518;49.398;2022-09-09T07:00:49;9.17;118.99
67186;HTU21D;54116;53.518;49.398;2022-09-09T07:03:16;9.46;118.99
67186;HTU21D;54116;53.518;49.398;2022-09-09T07:05:42;9.92;118.99
67186;HTU21D;54116;53.518;49.398;2022-09-09T07:08:10;10.51;118.99
67186;HTU21D;54116;53.518;49.398;2022-09-09T07:10:36;10.79;118.99
67186;HTU21D;54116;53.518;49.398;2022-09-09T07:13:02;11.14;118.99
67186;HTU21D;54116;53.518;49.398;2022-09-09T07:15:29;11.07;118.99
67186;HTU21D;54116;53.518;49.398;2022-09-09T07:17:55;10.95;118.99
67186;HTU21D;54116;53.518;49.398;2022-09-09T07:20:26;10.88;118.99
67186;HTU21D;54116;53.518;49.398;2022-09-09T07:22:54;10.87;118.99
67186;HTU21D;54116;53.518;49.398;2022-09-09T07:25:21;11.01;118.99
67186;HTU21D;54116;53.518;49.398;2022-09-09T07:27:47;11.29;118.99
67186;HTU21D;54116;53.518;49.398;2022-09-09T07:30:14;11.69;118.99
67186;HTU21D;54116;53.518;49.398;2022-09-09T07:32:40;11.79;118.99
67186;HTU21D;54116;53.518;49.398;2022-09-09T07:35:06;12.34;118.99
67186;HTU21D;54116;53.518;49.398;2022-09-09T07:37:35;12.75;118.99
67186;HTU21D;54116;53.518;49.398;2022-09-09T07:40:02;12.95;118.99
67186;HTU21D;54116;53.518;49.398;2022-09-09T07:42:32;12.72;118.99
67186;HTU21D;54116;53.518;49.398;2022-09-09T07:44:59;12.73;118.99
67186;HTU21D;54116;53.518;49.398;2022-09-09T07:47:25;12.88;118.99
67186;HTU21D;54116;53.518;49.398;2022-09-09T07:49:51;13.01;118.99
67186;HTU21D;54116;53.518;49.398;2022-09-09T07:52:17;12.71;118.79
67186;HTU21D;54116;53.518;49.398;2022-09-09T07:54:43;12.12;118.99
67186;HTU21D;54116;53.518;49.398;2022-09-09T07:57:11;11.93;118.99
67186;HTU21D;54116;53.518;49.398;2022-09-09T07:59:38;11.90;118.99
67186;HTU21D;54116;53.518;49.398;2022-09-09T08:02:04;11.75;118.99
67186;HTU21D;54116;53.518;49.398;2022-09-09T08:04:30;11.97;118.99
67186;HTU21D;54116;53.518;49.398;2022-09-09T08:06:59;12.17;118.99
67186;HTU21D;54116;53.518;49.398;2022-09-09T08:09:26;12.45;118.99
67186;HTU21D;54116;53.518;49.398;2022-09-09T08:11:55;12.47;118.99
67186;HTU21D;54116;53.518;49.398;2022-09-09T08:14:26;12.29;118.99
67186;HTU21D;54116;53.518;49.398;2022-09-09T08:16:52;12.26;118.99
67186;HTU21D;54116;53.518;49.398;2022-09-09T08:19:19;11.97;118.99
67186;HTU21D;54116;53.518;49.398;2022-09-09T08:21:46;11.57;118.99
67186;HTU21D;54116;53.518;49.398;2022-09-09T08:24:12;11.14;118.99
67186;HTU21D;54116;53.518;49.398;2022-09-09T08:26:44;11.05;118.99
67186;HTU21D;54116;53.518;49.398;2022-09-09T08:29:13;10.63;118.99
67186;HTU21D;54116;53.518;49.398;2022-09-09T08:31:42;10.27;118.99
67186;HTU21D;54116;53.518;49.398;2022-09-09T08:34:09;10.12;118.99
67186;HTU21D;54116;53.518;49.398;2022-09-09T08:36:38;10.15;118.99
67186;HTU21D;54116;53.518;49.398;2022-09-09T08:39:06;10.03;118.99
67186;HTU21D;54116;53.518;49.398;2022-09-09T08:42:10;10.14;118.99
67186;HTU21D;54116;53.518;49.398;2022-09-09T08:50:29;11.78;118.99
67186;HTU21D;54116;53.518;49.398;2022-09-09T08:53:14;12.16;118.99
67186;HTU21D;54116;53.518;49.398;2022-09-09T08:55:55;12.18;118.44
67186;HTU21D;54116;53.518;49.398;2022-09-09T08:58:34;12.04;118.99
67186;HTU21D;54116;53.518;49.398;2022-09-09T09:09:02;12.56;118.99
67186;HTU21D;54116;53.518;49.398;2022-09-09T09:11:43;12.21;115.55
67186;HTU21D;54116;53.518;49.398;2022-09-09T09:14:22;11.99;115.45
67186;HTU21D;54116;53.518;49.398;2022-09-09T09:19:21;12.72;103.41
67186;HTU21D;54116;53.518;49.398;2022-09-09T09:25:05;13.73;95.65
67186;HTU21D;54116;53.518;49.398;2022-09-09T09:30:14;13.62;108.93
67186;HTU21D;54116;53.518;49.398;2022-09-09T09:32:44;13.39;100.35
67186;HTU21D;54116;53.518;49.398;2022-09-09T09:35:13;13.00;104.60
67186;HTU21D;54116;53.518;49.398;2022-09-09T09:37:41;12.55;107.16
67186;HTU21D;54116;53.518;49.398;2022-09-09T09:40:14;12.16;109.49
67186;HTU21D;54116;53.518;49.398;2022-09-09T09:45:41;11.84;109.14
67186;HTU21D;54116;53.518;49.398;2022-09-09T09:48:19;11.74;111.68
67186;HTU21D;54116;53.518;49.398;2022-09-09T09:51:09;11.88;113.61
67186;HTU21D;54116;53.518;49.398;2022-09-09T09:53:41;12.41;118.99
67186;HTU21D;54116;53.518;49.398;2022-09-09T09:56:10;12.93;100.47
67186;HTU21D;54116;53.518;49.398;2022-09-09T10:01:38;13.27;102.83
67186;HTU21D;54116;53.518;49.398;2022-09-09T10:04:22;13.18;103.77
67186;HTU21D;54116;53.518;49.398;2022-09-09T10:06:50;13.15;91.47
67186;HTU21D;54116;53.518;49.398;2022-09-09T10:09:23;12.84;96.52
67186;HTU21D;54116;53.518;49.398;2022-09-09T10:17:07;12.85;99.16
67186;HTU21D;54116;53.518;49.398;2022-09-09T10:19:42;12.64;101.63
67186;HTU21D;54116;53.518;49.398;2022-09-09T10:27:24;12.97;107.93
67186;HTU21D;54116;53.518;49.398;2022-09-09T10:35:29;13.81;100.88
67186;HTU21D;54116;53.518;49.398;2022-09-09T10:38:05;13.46;97.32
67186;HTU21D;54116;53.518;49.398;2022-09-09T10:40:50;12.73;104.25
67186;HTU21D;54116;53.518;49.398;2022-09-09T10:51:59;12.89;106.08
67186;HTU21D;54116;53.518;49.398;2022-09-09T10:57:11;12.85;107.53
67186;HTU21D;54116;53.518;49.398;2022-09-09T10:59:50;12.60;116.09
67186;HTU21D;54116;53.518;49.398;2022-09-09T11:02:27;12.23;113.92
67186;HTU21D;54116;53.518;49.398;2022-09-09T11:07:44;12.34;112.50
67186;HTU21D;54116;53.518;49.398;2022-09-09T11:10:21;12.79;108.03
67186;HTU21D;54116;53.518;49.398;2022-09-09T11:12:52;13.06;108.56
67186;HTU21D;54116;53.518;49.398;2022-09-09T11:15:29;13.48;104.00
67186;HTU21D;54116;53.518;49.398;2022-09-09T11:17:58;13.32;104.11
67186;HTU21D;54116;53.518;49.398;2022-09-09T11:20:26;13.30;100.64
67186;HTU21D;54116;53.518;49.398;2022-09-09T11:22:58;13.17;96.65
67186;HTU21D;54116;53.518;49.398;2022-09-09T11:25:49;13.41;93.53
67186;HTU21D;54116;53.518;49.398;2022-09-09T11:40:23;13.01;99.03
67186;HTU21D;54116;53.518;49.398;2022-09-09T11:43:15;12.71;108.17
67186;HTU21D;54116;53.518;49.398;2022-09-09T11:45:54;12.80;109.30
67186;HTU21D;54116;53.518;49.398;2022-09-09T11:48:35;12.60;106.96
67186;HTU21D;54116;53.518;49.398;2022-09-09T11:51:11;12.03;118.99
67186;HTU21D;54116;53.518;49.398;2022-09-09T11:53:53;10.81;118.99
67186;HTU21D;54116;53.518;49.398;2022-09-09T11:56:42;10.37;118.99
67186;HTU21D;54116;53.518;49.398;2022-09-09T11:59:27;10.29;118.99
67186;HTU21D;54116;53.518;49.398;2022-09-09T12:01:55;10.33;118.99
